Time;durP1;ratioP1;P1;durP2;ratioP2;P2;SDS_P1;SDS_P2;PMS_P1;PMS_P2;Temp;Humidity;BMP_temperature;BMP_pressure;BME280_temperature;BME280_humidity;BME280_pressure;Samples;Min_cycle;Max_cycle;Signal;HPM_P1;HPM_P2
2021/04/14 00:02:07;;;;;;;0.70;0.50;;;;;;;;;;4993619;28;20491;-65
2021/04/14 00:04:33;;;;;;;1.13;1.03;;;;;;;;;;4994406;28;20489;-68
2021/04/14 00:07:00;;;;;;;1.73;0.90;;;;;;;;;;4994765;28;20392;-64
2021/04/14 00:09:26;;;;;;;13.83;1.27;;;;;;;;;;5004670;28;20412;-67
2021/04/14 00:11:52;;;;;;;0.70;0.50;;;;;;;;;;4993602;28;20901;-67
2021/04/14 00:14:18;;;;;;;0.70;0.50;;;;;;;;;;4994467;28;20436;-67
2021/04/14 00:16:44;;;;;;;1.40;0.83;;;;;;;;;;4992822;28;20412;-67
2021/04/14 00:19:10;;;;;;;0.80;0.63;;;;;;;;;;4993231;28;20416;-67
2021/04/14 00:21:36;;;;;;;0.70;0.43;;;;;;;;;;5000336;28;20488;-66
2021/04/14 00:24:02;;;;;;;2.20;1.27;;;;;;;;;;5006568;28;20446;-66
2021/04/14 00:26:28;;;;;;;0.80;0.70;;;;;;;;;;5002113;28;20413;-67
2021/04/14 00:28:54;;;;;;;0.80;0.60;;;;;;;;;;4999978;28;20426;-68
2021/04/14 00:31:34;;;;;;;1.10;0.80;;;;;;;;;;4999323;28;20425;-67
2021/04/14 00:34:00;;;;;;;0.70;0.50;;;;;;;;;;4998969;28;20467;-67
2021/04/14 00:36:26;;;;;;;0.93;0.80;;;;;;;;;;5004567;28;21727;-66
2021/04/14 00:38:52;;;;;;;20.53;1.83;;;;;;;;;;4994941;28;20927;-67
2021/04/14 00:41:18;;;;;;;0.70;0.50;;;;;;;;;;4992657;28;20487;-67
2021/04/14 00:43:44;;;;;;;0.80;0.60;;;;;;;;;;4993828;28;20513;-66
2021/04/14 00:46:12;;;;;;;0.80;0.80;;;;;;;;;;4996636;28;20390;-67
2021/04/14 00:48:39;;;;;;;0.70;0.60;;;;;;;;;;5007054;28;20464;-67
2021/04/14 00:51:05;;;;;;;0.80;0.70;;;;;;;;;;5003667;28;21036;-65
2021/04/14 00:53:31;;;;;;;0.80;0.60;;;;;;;;;;4993402;28;20492;-66
2021/04/14 00:55:57;;;;;;;0.70;0.40;;;;;;;;;;4993670;28;21185;-66
2021/04/14 00:58:23;;;;;;;1.23;0.70;;;;;;;;;;4993256;28;20409;-66
2021/04/14 01:00:52;;;;;;;0.70;0.50;;;;;;;;;;4992736;28;20479;-66
2021/04/14 01:03:21;;;;;;;1.47;0.80;;;;;;;;;;4992460;28;20546;-68
2021/04/14 01:05:48;;;;;;;0.70;0.60;;;;;;;;;;4993499;28;20411;-66
2021/04/14 01:08:14;;;;;;;0.80;0.60;;;;;;;;;;4998904;28;20468;-66
2021/04/14 01:10:40;;;;;;;0.70;0.50;;;;;;;;;;4997741;28;20412;-68
2021/04/14 01:13:06;;;;;;;2.23;1.13;;;;;;;;;;4992479;28;20444;-66
2021/04/14 01:15:34;;;;;;;0.70;0.50;;;;;;;;;;4993308;28;20781;-66
2021/04/14 01:18:00;;;;;;;5.83;1.03;;;;;;;;;;4993222;28;20424;-67
2021/04/14 01:20:26;;;;;;;0.80;0.70;;;;;;;;;;4993881;28;20403;-66
2021/04/14 01:22:52;;;;;;;1.53;1.43;;;;;;;;;;4992711;28;20438;-65
2021/04/14 01:25:19;;;;;;;0.90;0.73;;;;;;;;;;4997223;28;20427;-65
2021/04/14 01:27:45;;;;;;;1.10;0.50;;;;;;;;;;4992537;28;20469;-67
2021/04/14 01:30:17;;;;;;;0.70;0.50;;;;;;;;;;4992638;28;21049;-67
2021/04/14 01:32:43;;;;;;;0.70;0.50;;;;;;;;;;4991454;28;20909;-68
2021/04/14 01:35:09;;;;;;;3.77;1.23;;;;;;;;;;4991329;28;20439;-65
2021/04/14 01:37:35;;;;;;;0.70;0.50;;;;;;;;;;4992536;28;20435;-68
2021/04/14 01:40:01;;;;;;;1.00;0.90;;;;;;;;;;4991901;28;20998;-68
2021/04/14 01:42:27;;;;;;;1.10;0.57;;;;;;;;;;4990558;28;20493;-68
2021/04/14 01:44:53;;;;;;;0.80;0.50;;;;;;;;;;4992009;28;20419;-66
2021/04/14 01:47:19;;;;;;;1.00;0.90;;;;;;;;;;4992627;28;20435;-64
2021/04/14 01:49:45;;;;;;;0.80;0.70;;;;;;;;;;4992639;28;20400;-66
2021/04/14 01:52:13;;;;;;;1.23;1.10;;;;;;;;;;4991827;28;20439;-66
2021/04/14 01:54:39;;;;;;;1.00;0.90;;;;;;;;;;4993568;28;20430;-67
2021/04/14 01:57:06;;;;;;;0.73;0.57;;;;;;;;;;4992735;28;20397;-63
2021/04/14 01:59:32;;;;;;;0.70;0.50;;;;;;;;;;4993970;28;20574;-66
2021/04/14 02:01:58;;;;;;;1.00;0.90;;;;;;;;;;4991378;28;20543;-65
2021/04/14 02:04:24;;;;;;;0.73;0.57;;;;;;;;;;4991965;28;20454;-66
2021/04/14 02:06:49;;;;;;;0.77;0.67;;;;;;;;;;4992501;28;20480;-66
2021/04/14 02:09:15;;;;;;;3.40;0.73;;;;;;;;;;4992659;28;20495;-65
2021/04/14 02:11:41;;;;;;;1.43;1.10;;;;;;;;;;4991580;28;20447;-64
2021/04/14 02:14:09;;;;;;;1.30;0.93;;;;;;;;;;4992046;28;20453;-66
2021/04/14 02:16:36;;;;;;;0.73;0.57;;;;;;;;;;4992926;28;20416;-63
2021/04/14 02:19:02;;;;;;;1.10;0.80;;;;;;;;;;4992204;28;20424;-64
2021/04/14 02:21:28;;;;;;;0.70;0.50;;;;;;;;;;4991054;28;21041;-63
2021/04/14 02:23:53;;;;;;;0.70;0.50;;;;;;;;;;4992064;28;20778;-67
2021/04/14 02:26:21;;;;;;;1.07;0.73;;;;;;;;;;4991753;28;20473;-63
2021/04/14 02:28:47;;;;;;;0.70;0.40;;;;;;;;;;4991804;28;20816;-66
2021/04/14 02:31:15;;;;;;;0.70;0.63;;;;;;;;;;4990973;28;21228;-67
2021/04/14 02:33:41;;;;;;;1.03;0.50;;;;;;;;;;4991677;28;20599;-68
2021/04/14 02:36:07;;;;;;;13.43;2.30;;;;;;;;;;4990925;28;20489;-68
2021/04/14 02:38:33;;;;;;;0.93;0.83;;;;;;;;;;4992333;28;20795;-67
2021/04/14 02:41:05;;;;;;;0.90;0.90;;;;;;;;;;4992072;28;20461;-68
2021/04/14 02:43:31;;;;;;;0.70;0.50;;;;;;;;;;4991540;28;20445;-66
2021/04/14 02:45:58;;;;;;;1.10;0.90;;;;;;;;;;4992604;28;20413;-65
2021/04/14 02:48:23;;;;;;;0.70;0.47;;;;;;;;;;4991068;28;20443;-65
2021/04/14 02:50:49;;;;;;;1.03;0.93;;;;;;;;;;4991495;28;20407;-64
2021/04/14 02:53:15;;;;;;;1.57;0.90;;;;;;;;;;4989520;28;20440;-67
2021/04/14 02:55:41;;;;;;;1.20;0.80;;;;;;;;;;4991616;28;20470;-67
2021/04/14 02:58:07;;;;;;;0.70;0.50;;;;;;;;;;4991775;28;20442;-67
2021/04/14 03:00:34;;;;;;;1.27;0.70;;;;;;;;;;4991306;28;20492;-65
2021/04/14 03:03:00;;;;;;;1.53;1.27;;;;;;;;;;5016874;23;20466;31
2021/04/14 03:05:32;;;;;;;0.93;0.80;;;;;;;;;;5019240;28;20458;-67
2021/04/14 03:07:59;;;;;;;0.70;0.50;;;;;;;;;;5034233;28;20433;-67
2021/04/14 03:10:25;;;;;;;0.70;0.53;;;;;;;;;;5033033;28;20455;-67
2021/04/14 03:12:52;;;;;;;1.57;1.30;;;;;;;;;;5029415;28;20408;-67
2021/04/14 03:15:20;;;;;;;0.70;0.60;;;;;;;;;;5016259;28;20835;-66
2021/04/14 03:17:46;;;;;;;0.70;0.50;;;;;;;;;;5019407;28;20412;-67
2021/04/14 03:20:12;;;;;;;0.70;0.50;;;;;;;;;;5009645;28;20416;-67
2021/04/14 03:22:38;;;;;;;0.70;0.40;;;;;;;;;;4990948;28;20466;-66
2021/04/14 03:25:05;;;;;;;0.70;0.50;;;;;;;;;;4995964;28;20447;-66
2021/04/14 03:27:31;;;;;;;1.73;1.13;;;;;;;;;;5014877;28;20501;-67
2021/04/14 03:29:57;;;;;;;0.70;0.40;;;;;;;;;;5011452;28;20421;-66
2021/04/14 03:32:23;;;;;;;1.57;0.70;;;;;;;;;;5010071;28;20420;-65
2021/04/14 03:34:49;;;;;;;0.80;0.60;;;;;;;;;;5013028;28;20951;-65
2021/04/14 03:37:15;;;;;;;0.70;0.50;;;;;;;;;;5010147;28;20827;-66
2021/04/14 03:39:41;;;;;;;1.30;1.07;;;;;;;;;;4991143;28;20406;-66
2021/04/14 03:42:07;;;;;;;0.80;0.60;;;;;;;;;;4990661;28;20451;-66
2021/04/14 03:44:35;;;;;;;1.53;0.63;;;;;;;;;;5014400;28;20445;-66
2021/04/14 03:47:02;;;;;;;3.90;0.70;;;;;;;;;;5030331;28;20814;-67
2021/04/14 03:49:28;;;;;;;0.70;0.53;;;;;;;;;;5011442;28;20405;-67
2021/04/14 03:51:54;;;;;;;1.13;0.87;;;;;;;;;;5005526;28;20422;-65
2021/04/14 03:54:20;;;;;;;0.80;0.60;;;;;;;;;;5000524;28;20434;-66
2021/04/14 03:56:46;;;;;;;0.70;0.40;;;;;;;;;;5010188;28;20481;-66
2021/04/14 03:59:12;;;;;;;1.80;1.43;;;;;;;;;;5004043;28;20435;-66
2021/04/14 04:01:38;;;;;;;0.70;0.40;;;;;;;;;;5002944;28;20453;-66
2021/04/14 04:04:04;;;;;;;0.70;0.60;;;;;;;;;;4991581;28;20441;-66
2021/04/14 04:06:30;;;;;;;0.70;0.50;;;;;;;;;;4994634;28;20403;-66
2021/04/14 04:08:56;;;;;;;0.80;0.67;;;;;;;;;;4994526;28;21063;-66
2021/04/14 04:11:23;;;;;;;12.87;1.23;;;;;;;;;;5010256;28;20486;-66
2021/04/14 04:13:50;;;;;;;1.87;0.80;;;;;;;;;;5033078;28;20472;-66
2021/04/14 04:16:16;;;;;;;0.80;0.50;;;;;;;;;;4994855;28;20437;-66
2021/04/14 04:18:42;;;;;;;1.47;0.90;;;;;;;;;;5023740;28;20475;-66
2021/04/14 04:21:08;;;;;;;0.70;0.60;;;;;;;;;;5022279;28;20457;-66
2021/04/14 04:23:35;;;;;;;0.70;0.50;;;;;;;;;;5013412;28;20426;-66
2021/04/14 04:26:01;;;;;;;0.70;0.40;;;;;;;;;;5013756;28;20910;-66
2021/04/14 04:28:27;;;;;;;0.80;0.50;;;;;;;;;;5023885;28;20409;-65
2021/04/14 04:30:53;;;;;;;0.70;0.40;;;;;;;;;;5032002;28;20909;-66
2021/04/14 04:33:20;;;;;;;1.00;0.90;;;;;;;;;;5005394;28;20453;-66
2021/04/14 04:35:46;;;;;;;0.90;0.60;;;;;;;;;;5003567;28;20885;-66
2021/04/14 04:38:12;;;;;;;0.70;0.50;;;;;;;;;;5010184;28;20422;-66
2021/04/14 04:40:38;;;;;;;0.70;0.50;;;;;;;;;;5004399;28;20945;-65
2021/04/14 04:43:04;;;;;;;0.80;0.70;;;;;;;;;;5002662;28;20918;-65
2021/04/14 04:45:31;;;;;;;1.37;0.67;;;;;;;;;;5002365;28;20497;-65
2021/04/14 04:47:57;;;;;;;1.00;0.70;;;;;;;;;;5001454;28;20410;-67
2021/04/14 04:50:27;;;;;;;0.70;0.60;;;;;;;;;;5001660;28;20466;-65
2021/04/14 04:52:54;;;;;;;1.53;0.83;;;;;;;;;;5009472;28;20464;-66
2021/04/14 04:55:20;;;;;;;1.00;0.87;;;;;;;;;;5001187;28;20947;-66
2021/04/14 04:57:46;;;;;;;0.70;0.60;;;;;;;;;;5007110;28;20907;-65
2021/04/14 05:00:13;;;;;;;0.70;0.50;;;;;;;;;;5005280;28;20471;-66
2021/04/14 05:02:39;;;;;;;0.70;0.50;;;;;;;;;;5002515;28;20468;-65
2021/04/14 05:05:06;;;;;;;1.00;0.90;;;;;;;;;;5004970;28;20454;-67
2021/04/14 05:07:32;;;;;;;1.20;0.93;;;;;;;;;;5005368;28;20415;-67
2021/04/14 05:10:00;;;;;;;0.70;0.50;;;;;;;;;;5007118;28;20418;-67
2021/04/14 05:12:25;;;;;;;0.70;0.50;;;;;;;;;;5000658;28;20505;-67
2021/04/14 05:14:51;;;;;;;0.80;0.70;;;;;;;;;;4995918;28;20971;-65
2021/04/14 05:17:17;;;;;;;0.70;0.50;;;;;;;;;;4994045;28;20401;-65
2021/04/14 05:19:43;;;;;;;0.70;0.60;;;;;;;;;;4992999;28;20901;-66
2021/04/14 05:22:09;;;;;;;0.87;0.77;;;;;;;;;;4992350;28;20983;-67
2021/04/14 05:24:35;;;;;;;0.70;0.50;;;;;;;;;;4995225;28;20533;-66
2021/04/14 05:27:01;;;;;;;1.10;0.60;;;;;;;;;;5003203;28;20524;-65
2021/04/14 05:29:27;;;;;;;0.70;0.50;;;;;;;;;;5002858;28;20962;-66
2021/04/14 05:31:53;;;;;;;1.20;0.70;;;;;;;;;;5001648;28;20530;-67
2021/04/14 05:34:19;;;;;;;0.77;0.57;;;;;;;;;;5002459;28;20420;-67
2021/04/14 05:36:45;;;;;;;6.30;0.93;;;;;;;;;;5004186;28;20412;-67
2021/04/14 05:39:11;;;;;;;1.20;0.80;;;;;;;;;;5007829;28;20925;-67
2021/04/14 05:41:37;;;;;;;0.70;0.40;;;;;;;;;;5005009;28;20456;-67
2021/04/14 05:44:03;;;;;;;0.70;0.40;;;;;;;;;;5021753;28;20433;-67
2021/04/14 05:46:29;;;;;;;0.70;0.60;;;;;;;;;;5010076;28;20417;-68
2021/04/14 05:48:55;;;;;;;0.90;0.80;;;;;;;;;;5010976;28;20920;-67
2021/04/14 05:51:24;;;;;;;0.70;0.50;;;;;;;;;;4999656;28;20471;-67
2021/04/14 05:53:50;;;;;;;1.10;0.50;;;;;;;;;;5009145;28;20438;-67
2021/04/14 05:56:17;;;;;;;0.70;0.40;;;;;;;;;;5001371;28;20422;-67
2021/04/14 05:58:43;;;;;;;0.70;0.40;;;;;;;;;;4992286;28;20424;-67
2021/04/14 06:01:10;;;;;;;0.90;0.70;;;;;;;;;;4991507;28;20458;-67
2021/04/14 06:03:36;;;;;;;0.70;0.40;;;;;;;;;;5006132;28;20461;-67
2021/04/14 06:06:02;;;;;;;0.70;0.40;;;;;;;;;;5000173;28;20416;-67
2021/04/14 06:08:29;;;;;;;0.70;0.50;;;;;;;;;;4998798;28;20424;-67
2021/04/14 06:10:56;;;;;;;0.70;0.50;;;;;;;;;;5000640;28;20407;-67
2021/04/14 06:13:22;;;;;;;0.80;0.57;;;;;;;;;;5010108;28;20436;-67
2021/04/14 06:15:48;;;;;;;1.00;0.50;;;;;;;;;;5004051;28;20434;-66
2021/04/14 06:18:13;;;;;;;0.80;0.60;;;;;;;;;;5008376;28;20413;-67
2021/04/14 06:20:39;;;;;;;5.23;1.50;;;;;;;;;;5000352;28;20479;-67
2021/04/14 06:23:07;;;;;;;0.80;0.60;;;;;;;;;;4998861;28;20474;-67
2021/04/14 06:25:54;;;;;;;0.87;0.87;;;;;;;;;;5001642;28;20451;-67
2021/04/14 06:28:20;;;;;;;0.83;0.83;;;;;;;;;;4999475;28;20911;-66
2021/04/14 06:30:46;;;;;;;1.73;1.63;;;;;;;;;;5000654;28;20432;-67
2021/04/14 06:33:12;;;;;;;1.23;1.13;;;;;;;;;;5003627;28;20443;-67
2021/04/14 06:35:38;;;;;;;0.90;0.60;;;;;;;;;;4994054;28;20526;-67
2021/04/14 06:38:05;;;;;;;1.00;0.50;;;;;;;;;;4998724;28;20436;-67
2021/04/14 06:43:28;;;;;;;0.70;0.50;;;;;;;;;;5000346;28;20511;-67
2021/04/14 06:45:57;;;;;;;0.80;0.60;;;;;;;;;;5002532;28;20433;-66
2021/04/14 06:48:26;;;;;;;0.70;0.50;;;;;;;;;;5000504;28;20416;-66
2021/04/14 06:50:56;;;;;;;0.80;0.60;;;;;;;;;;5007565;28;20923;-66
2021/04/14 06:53:26;;;;;;;1.00;0.70;;;;;;;;;;5004781;28;20443;-66
2021/04/14 06:55:59;;;;;;;1.57;0.70;;;;;;;;;;5002248;28;20488;-66
2021/04/14 06:58:31;;;;;;;7.73;7.07;;;;;;;;;;5004443;28;20417;-66
2021/04/14 07:01:00;;;;;;;0.70;0.47;;;;;;;;;;5006057;28;20471;-65
2021/04/14 07:03:31;;;;;;;0.80;0.60;;;;;;;;;;5003336;28;20448;-66
2021/04/14 07:06:05;;;;;;;0.70;0.50;;;;;;;;;;5008454;28;20505;-66
2021/04/14 07:08:33;;;;;;;0.70;0.50;;;;;;;;;;5019693;28;20803;-66
2021/04/14 07:10:59;;;;;;;6.63;0.77;;;;;;;;;;5010452;28;20420;-66
2021/04/14 07:13:26;;;;;;;1.07;0.97;;;;;;;;;;5020420;28;20449;-66
2021/04/14 07:15:55;;;;;;;1.40;0.60;;;;;;;;;;5007729;28;20419;-65
2021/04/14 07:18:33;;;;;;;0.70;0.40;;;;;;;;;;5017851;28;20897;-66
2021/04/14 07:20:59;;;;;;;1.80;0.60;;;;;;;;;;5025854;28;20540;-68
2021/04/14 07:23:47;;;;;;;0.90;0.80;;;;;;;;;;5008585;28;20432;-67
2021/04/14 07:26:20;;;;;;;0.80;0.60;;;;;;;;;;5010268;28;20412;-67
2021/04/14 07:28:50;;;;;;;0.70;0.63;;;;;;;;;;5013255;28;20375;-67
2021/04/14 07:31:26;;;;;;;1.20;1.00;;;;;;;;;;5005538;28;20927;-67
2021/04/14 07:33:55;;;;;;;4.00;0.63;;;;;;;;;;5003816;28;20548;-67
2021/04/14 07:36:31;;;;;;;0.80;0.60;;;;;;;;;;5001674;28;20426;-66
2021/04/14 07:39:02;;;;;;;1.63;0.80;;;;;;;;;;5007238;28;20420;-67
2021/04/14 07:41:33;;;;;;;0.70;0.50;;;;;;;;;;5015351;28;20448;-67
2021/04/14 07:44:18;;;;;;;0.70;0.50;;;;;;;;;;5023633;28;20576;-67
2021/04/14 07:46:47;;;;;;;2.53;0.67;;;;;;;;;;5029086;28;20766;-67
2021/04/14 07:49:14;;;;;;;2.47;0.90;;;;;;;;;;5013611;28;20774;-66
2021/04/14 07:51:41;;;;;;;1.30;0.60;;;;;;;;;;5011214;28;20474;-67
2021/04/14 07:54:14;;;;;;;0.80;0.60;;;;;;;;;;5001453;28;20519;-66
2021/04/14 07:56:44;;;;;;;0.80;0.80;;;;;;;;;;5006408;28;20830;-67
2021/04/14 07:59:12;;;;;;;4.10;0.90;;;;;;;;;;5004924;28;20418;-67
2021/04/14 08:01:38;;;;;;;0.80;0.67;;;;;;;;;;5018457;28;20462;-66
2021/04/14 08:04:16;;;;;;;0.80;0.50;;;;;;;;;;5022985;28;20450;-67
2021/04/14 08:06:42;;;;;;;1.53;0.60;;;;;;;;;;5028288;28;20417;-67
2021/04/14 08:09:19;;;;;;;1.83;1.70;;;;;;;;;;5010571;28;20764;-67
2021/04/14 08:11:45;;;;;;;4.90;0.80;;;;;;;;;;5011074;28;20471;-67
2021/04/14 08:14:35;;;;;;;0.70;0.40;;;;;;;;;;5022601;28;20950;-67
2021/04/14 08:17:11;;;;;;;0.87;0.60;;;;;;;;;;5027363;28;20950;-67
2021/04/14 08:19:40;;;;;;;0.70;0.50;;;;;;;;;;5027022;28;21071;-67
2021/04/14 08:22:08;;;;;;;0.70;0.40;;;;;;;;;;5028275;28;20460;-67
2021/04/14 08:24:41;;;;;;;1.43;0.80;;;;;;;;;;5019152;28;20791;-67
2021/04/14 08:27:18;;;;;;;0.90;0.50;;;;;;;;;;5004201;28;20507;-67
2021/04/14 08:29:44;;;;;;;0.80;0.60;;;;;;;;;;5000798;28;20508;-67
2021/04/14 08:32:11;;;;;;;0.70;0.47;;;;;;;;;;4999662;28;20417;-66
2021/04/14 08:34:39;;;;;;;4.40;0.80;;;;;;;;;;5003154;28;20426;-66
2021/04/14 08:37:19;;;;;;;0.80;0.50;;;;;;;;;;5007459;28;20440;-66
2021/04/14 08:39:57;;;;;;;0.70;0.40;;;;;;;;;;5025136;28;20711;-67
2021/04/14 08:42:23;;;;;;;0.70;0.50;;;;;;;;;;5039912;28;20524;-69
2021/04/14 08:45:09;;;;;;;0.80;0.57;;;;;;;;;;5013872;28;20937;-69
2021/04/14 08:47:36;;;;;;;1.00;0.67;;;;;;;;;;5002896;28;20800;-69
2021/04/14 08:50:05;;;;;;;1.23;0.70;;;;;;;;;;5005479;28;20421;-71
2021/04/14 08:52:31;;;;;;;0.80;0.50;;;;;;;;;;4999948;28;20591;-71
2021/04/14 08:54:57;;;;;;;0.70;0.50;;;;;;;;;;4996838;28;20435;-69
2021/04/14 08:57:23;;;;;;;0.70;0.50;;;;;;;;;;4996740;28;21747;-70
2021/04/14 08:59:50;;;;;;;0.70;0.40;;;;;;;;;;5015122;28;20424;-70
2021/04/14 09:02:18;;;;;;;1.77;0.80;;;;;;;;;;5007166;28;20494;-72
2021/04/14 09:04:48;;;;;;;1.03;0.50;;;;;;;;;;4998054;28;20453;-71
2021/04/14 09:07:19;;;;;;;1.30;0.63;;;;;;;;;;5002635;28;20942;-72
2021/04/14 09:09:47;;;;;;;0.90;0.50;;;;;;;;;;4999484;28;20760;-68
2021/04/14 09:12:13;;;;;;;1.93;0.80;;;;;;;;;;5001067;28;20508;-68
2021/04/14 09:14:39;;;;;;;0.70;0.53;;;;;;;;;;5008472;28;20417;-68
2021/04/14 09:17:14;;;;;;;0.70;0.50;;;;;;;;;;5004055;28;20454;-69
2021/04/14 09:19:42;;;;;;;10.13;1.00;;;;;;;;;;5004893;28;20955;-68
2021/04/14 09:22:11;;;;;;;1.03;0.80;;;;;;;;;;4995252;28;20950;-69
2021/04/14 09:24:38;;;;;;;4.63;0.60;;;;;;;;;;5010757;28;20446;-68
2021/04/14 09:27:08;;;;;;;2.80;0.63;;;;;;;;;;5004645;28;20420;-69
2021/04/14 09:29:44;;;;;;;0.70;0.60;;;;;;;;;;5003255;28;20411;-68
2021/04/14 09:32:14;;;;;;;0.70;0.50;;;;;;;;;;5005163;28;20505;-68
2021/04/14 09:34:52;;;;;;;0.80;0.70;;;;;;;;;;5002777;28;20832;-68
2021/04/14 09:37:19;;;;;;;0.70;0.50;;;;;;;;;;5021819;28;20505;-69
2021/04/14 09:40:00;;;;;;;0.70;0.50;;;;;;;;;;4998089;28;20396;-69
2021/04/14 09:42:26;;;;;;;0.77;0.60;;;;;;;;;;5009812;28;20463;-69
2021/04/14 09:44:55;;;;;;;1.63;1.17;;;;;;;;;;4993245;28;20416;-69
2021/04/14 09:47:24;;;;;;;0.90;0.70;;;;;;;;;;5012730;28;20432;-69
2021/04/14 09:49:50;;;;;;;1.47;0.63;;;;;;;;;;5009712;28;20779;-69
2021/04/14 09:52:21;;;;;;;0.90;0.70;;;;;;;;;;4993689;28;20418;-69
2021/04/14 09:54:48;;;;;;;5.80;1.23;;;;;;;;;;5004051;28;21040;-69
2021/04/14 09:57:18;;;;;;;0.70;0.40;;;;;;;;;;5010244;28;20447;-68
2021/04/14 09:59:44;;;;;;;0.70;0.50;;;;;;;;;;5006726;28;20838;-69
2021/04/14 10:02:18;;;;;;;0.97;0.50;;;;;;;;;;4997657;28;20483;-68
2021/04/14 10:04:46;;;;;;;0.90;0.70;;;;;;;;;;5001832;28;20932;-69
2021/04/14 10:07:29;;;;;;;0.70;0.40;;;;;;;;;;5019164;28;20514;-68
2021/04/14 10:10:10;;;;;;;0.70;0.57;;;;;;;;;;5018463;28;20381;-68
2021/04/14 10:12:37;;;;;;;0.70;0.40;;;;;;;;;;5017568;28;20512;-68
2021/04/14 10:15:04;;;;;;;0.80;0.60;;;;;;;;;;5009653;28;20430;-68
2021/04/14 10:17:31;;;;;;;3.00;0.70;;;;;;;;;;5009690;28;20447;-68
2021/04/14 10:20:09;;;;;;;2.20;0.80;;;;;;;;;;5015940;28;20447;-70
2021/04/14 10:22:47;;;;;;;0.70;0.50;;;;;;;;;;5011781;28;20461;-67
2021/04/14 10:25:22;;;;;;;5.40;0.80;;;;;;;;;;5005383;28;20436;-69
2021/04/14 10:27:51;;;;;;;1.17;0.67;;;;;;;;;;5011811;28;20399;-69
2021/04/14 10:30:22;;;;;;;1.37;0.80;;;;;;;;;;5022749;28;20762;-69
2021/04/14 10:32:50;;;;;;;0.70;0.50;;;;;;;;;;5020037;28;20402;-69
2021/04/14 10:35:22;;;;;;;1.53;0.90;;;;;;;;;;5006313;28;20432;-67
2021/04/14 10:37:49;;;;;;;1.20;1.10;;;;;;;;;;5012788;28;20426;-67
2021/04/14 10:40:33;;;;;;;0.70;0.50;;;;;;;;;;5008131;28;20417;-70
2021/04/14 10:43:10;;;;;;;1.57;0.80;;;;;;;;;;5007072;28;20480;-69
2021/04/14 10:45:36;;;;;;;0.80;0.60;;;;;;;;;;5000611;28;20415;-70
2021/04/14 10:48:04;;;;;;;1.63;0.77;;;;;;;;;;5001442;28;20424;-68
2021/04/14 10:50:31;;;;;;;0.80;0.60;;;;;;;;;;5010182;28;20398;-69
2021/04/14 10:53:02;;;;;;;1.47;0.60;;;;;;;;;;5002465;28;20427;-68
2021/04/14 10:55:33;;;;;;;0.70;0.40;;;;;;;;;;5005810;28;20421;-70
2021/04/14 10:58:01;;;;;;;0.80;0.57;;;;;;;;;;4996737;28;20495;-69
2021/04/14 11:00:46;;;;;;;0.70;0.40;;;;;;;;;;5000101;28;20387;-70
2021/04/14 11:03:15;;;;;;;1.00;0.60;;;;;;;;;;5000438;28;20390;-70
2021/04/14 11:05:49;;;;;;;0.73;0.50;;;;;;;;;;4996811;28;20398;-70
2021/04/14 11:08:15;;;;;;;0.70;0.40;;;;;;;;;;5001196;28;20712;-70
2021/04/14 11:10:42;;;;;;;0.80;0.60;;;;;;;;;;4998465;28;20416;-70
2021/04/14 11:13:14;;;;;;;2.13;0.60;;;;;;;;;;5000066;28;20469;-69
2021/04/14 11:15:41;;;;;;;0.93;0.83;;;;;;;;;;4998614;28;20384;-69
2021/04/14 11:18:08;;;;;;;0.70;0.47;;;;;;;;;;4998790;28;20420;-70
2021/04/14 11:20:52;;;;;;;11.90;0.80;;;;;;;;;;4997976;28;20416;-70
2021/04/14 11:23:20;;;;;;;0.80;0.60;;;;;;;;;;4999933;28;20424;-70
2021/04/14 11:25:46;;;;;;;0.80;0.60;;;;;;;;;;5016161;28;20452;-70
2021/04/14 11:28:14;;;;;;;0.80;0.53;;;;;;;;;;5018130;28;20379;-70
2021/04/14 11:30:51;;;;;;;0.70;0.40;;;;;;;;;;5023537;28;21125;-69
2021/04/14 11:33:18;;;;;;;0.80;0.60;;;;;;;;;;5002705;28;20391;-69
2021/04/14 11:35:46;;;;;;;1.37;0.70;;;;;;;;;;5016145;28;20480;-69
2021/04/14 11:38:30;;;;;;;1.23;0.70;;;;;;;;;;5017782;28;20399;-69
2021/04/14 11:40:57;;;;;;;0.80;0.53;;;;;;;;;;5022644;28;21057;-70
2021/04/14 11:43:23;;;;;;;1.57;0.83;;;;;;;;;;5018443;28;20436;-69
2021/04/14 11:45:56;;;;;;;1.30;1.20;;;;;;;;;;5020061;28;20390;-69
2021/04/14 11:48:29;;;;;;;1.10;0.70;;;;;;;;;;5003761;28;20481;-69
2021/04/14 11:50:55;;;;;;;1.13;0.93;;;;;;;;;;5009080;28;20419;-69
2021/04/14 11:53:31;;;;;;;0.93;0.83;;;;;;;;;;5011843;28;21078;-70
2021/04/14 11:56:00;;;;;;;0.80;0.50;;;;;;;;;;5018630;28;20975;-69
2021/04/14 11:58:36;;;;;;;0.80;0.60;;;;;;;;;;5029501;28;20508;-69
2021/04/14 12:01:03;;;;;;;0.70;0.40;;;;;;;;;;5010825;28;20425;-68
2021/04/14 12:03:35;;;;;;;1.00;0.57;;;;;;;;;;5021174;28;20419;-69
2021/04/14 12:06:01;;;;;;;0.70;0.50;;;;;;;;;;5007776;28;20410;-70
2021/04/14 12:08:29;;;;;;;0.90;0.50;;;;;;;;;;5007904;28;20789;-70
2021/04/14 12:10:55;;;;;;;1.30;0.83;;;;;;;;;;5005240;28;20892;-69
2021/04/14 12:13:22;;;;;;;0.77;0.53;;;;;;;;;;5027608;28;20962;-69
2021/04/14 12:15:49;;;;;;;0.70;0.50;;;;;;;;;;5002665;28;20534;-69
2021/04/14 12:18:15;;;;;;;1.00;0.67;;;;;;;;;;5010444;28;20479;-68
2021/04/14 12:20:41;;;;;;;0.70;0.50;;;;;;;;;;4992133;28;20388;-69
2021/04/14 12:23:07;;;;;;;0.90;0.57;;;;;;;;;;5022137;28;21095;-70
2021/04/14 12:25:33;;;;;;;0.90;0.67;;;;;;;;;;5026598;28;20928;-70
2021/04/14 12:27:59;;;;;;;0.73;0.47;;;;;;;;;;5008604;28;20387;-70
2021/04/14 12:30:26;;;;;;;0.70;0.50;;;;;;;;;;5017311;28;20460;-71
2021/04/14 12:32:53;;;;;;;0.80;0.60;;;;;;;;;;5025945;28;20398;-69
2021/04/14 12:35:20;;;;;;;1.17;0.60;;;;;;;;;;5010320;28;20433;-70
2021/04/14 12:37:46;;;;;;;0.90;0.70;;;;;;;;;;5023849;28;20413;-70
2021/04/14 12:40:13;;;;;;;1.00;0.80;;;;;;;;;;5009124;28;20436;-70
2021/04/14 12:42:39;;;;;;;0.90;0.60;;;;;;;;;;5010190;28;20471;-70
2021/04/14 12:45:27;;;;;;;0.80;0.50;;;;;;;;;;5022923;28;20436;-69
2021/04/14 12:47:53;;;;;;;0.70;0.50;;;;;;;;;;5019697;28;20770;-70
2021/04/14 12:50:19;;;;;;;0.70;0.40;;;;;;;;;;4998982;28;20416;-68
2021/04/14 12:52:51;;;;;;;0.90;0.50;;;;;;;;;;5001304;28;20425;-68
2021/04/14 12:55:18;;;;;;;0.90;0.50;;;;;;;;;;5005414;28;20437;-71
2021/04/14 12:57:45;;;;;;;0.70;0.40;;;;;;;;;;5026528;28;20423;-69
2021/04/14 13:00:16;;;;;;;0.70;0.50;;;;;;;;;;5002356;28;20496;-69
2021/04/14 13:02:44;;;;;;;0.80;0.60;;;;;;;;;;4997898;28;20527;-68
2021/04/14 13:05:18;;;;;;;1.37;0.70;;;;;;;;;;5008448;28;20461;-71
2021/04/14 13:07:51;;;;;;;1.00;0.90;;;;;;;;;;5002827;28;20406;-69
2021/04/14 13:10:19;;;;;;;0.70;0.50;;;;;;;;;;5045280;23;20642;-84
2021/04/14 13:12:45;;;;;;;0.70;0.40;;;;;;;;;;5018562;28;20803;-83
2021/04/14 13:15:16;;;;;;;1.63;0.80;;;;;;;;;;5023861;28;20428;-82
2021/04/14 13:17:46;;;;;;;1.10;0.50;;;;;;;;;;5030134;28;20458;-81
2021/04/14 13:20:13;;;;;;;0.70;0.50;;;;;;;;;;5026164;28;20990;-81
2021/04/14 13:22:48;;;;;;;0.87;0.50;;;;;;;;;;5026406;28;20452;-81
2021/04/14 13:25:20;;;;;;;1.03;0.87;;;;;;;;;;5019139;28;20773;-80
2021/04/14 13:27:49;;;;;;;0.80;0.60;;;;;;;;;;5028829;28;20975;-79
2021/04/14 13:30:41;;;;;;;0.80;0.50;;;;;;;;;;5030224;28;20782;-80
2021/04/14 13:33:17;;;;;;;0.70;0.50;;;;;;;;;;4997710;28;20419;-80
2021/04/14 13:35:46;;;;;;;0.80;0.60;;;;;;;;;;5032341;28;20801;-80
2021/04/14 13:38:17;;;;;;;0.70;0.50;;;;;;;;;;5030719;28;20386;-80
2021/04/14 13:40:48;;;;;;;0.90;0.80;;;;;;;;;;5022384;28;20454;-80
2021/04/14 13:43:28;;;;;;;1.10;0.70;;;;;;;;;;5025615;28;20483;-80
2021/04/14 13:45:56;;;;;;;1.40;0.67;;;;;;;;;;5032624;28;20856;-80
2021/04/14 13:48:40;;;;;;;1.00;0.53;;;;;;;;;;5030681;28;20387;-80
2021/04/14 13:51:14;;;;;;;0.90;0.60;;;;;;;;;;5023166;28;20946;-79
2021/04/14 13:53:41;;;;;;;0.73;0.50;;;;;;;;;;5021501;28;20512;-79
2021/04/14 13:56:09;;;;;;;1.03;0.80;;;;;;;;;;5022504;28;20420;-79
2021/04/14 13:58:43;;;;;;;0.80;0.60;;;;;;;;;;5005116;28;20420;-79
2021/04/14 14:01:12;;;;;;;0.70;0.50;;;;;;;;;;5021281;28;20425;-78
2021/04/14 14:03:38;;;;;;;3.43;0.90;;;;;;;;;;5026914;28;20408;-78
2021/04/14 14:06:06;;;;;;;0.80;0.60;;;;;;;;;;5016810;28;20383;-78
2021/04/14 14:08:34;;;;;;;0.70;0.50;;;;;;;;;;5034899;28;20406;-79
2021/04/14 14:11:11;;;;;;;0.80;0.60;;;;;;;;;;5037363;28;20464;-79
2021/04/14 14:13:41;;;;;;;0.93;0.83;;;;;;;;;;5029008;28;20413;-79
2021/04/14 14:16:11;;;;;;;0.90;0.70;;;;;;;;;;5035700;28;20369;-79
2021/04/14 14:18:40;;;;;;;0.80;0.70;;;;;;;;;;5020023;28;20419;-80
2021/04/14 14:21:09;;;;;;;0.70;0.50;;;;;;;;;;5022086;28;20475;-80
2021/04/14 14:23:38;;;;;;;0.80;0.60;;;;;;;;;;5022985;28;20899;-81
2021/04/14 14:26:05;;;;;;;1.03;0.93;;;;;;;;;;5030989;28;20394;-80
2021/04/14 14:28:31;;;;;;;1.07;0.97;;;;;;;;;;5025027;28;20482;-79
2021/04/14 14:31:01;;;;;;;0.80;0.50;;;;;;;;;;5022891;28;20423;-79
2021/04/14 14:33:29;;;;;;;0.80;0.50;;;;;;;;;;5025749;28;20433;-80
2021/04/14 14:35:59;;;;;;;7.40;0.60;;;;;;;;;;5024252;28;20474;-80
2021/04/14 14:38:30;;;;;;;0.80;0.60;;;;;;;;;;5024520;28;20440;-81
2021/04/14 14:40:57;;;;;;;0.80;0.70;;;;;;;;;;5022668;28;20428;-82
2021/04/14 14:43:30;;;;;;;0.90;0.67;;;;;;;;;;5021543;28;20413;-80
2021/04/14 14:46:06;;;;;;;0.70;0.50;;;;;;;;;;5005614;28;20383;-80
2021/04/14 14:48:34;;;;;;;0.73;0.57;;;;;;;;;;5021812;28;20387;-80
2021/04/14 14:51:02;;;;;;;0.70;0.50;;;;;;;;;;5027304;28;20490;-80
2021/04/14 14:53:29;;;;;;;0.70;0.40;;;;;;;;;;5046578;28;20403;-79
2021/04/14 14:56:01;;;;;;;0.70;0.50;;;;;;;;;;5040570;28;20790;-80